createdAt,value
2023-01-27T00:00:54.669Z,14.17
2023-01-27T00:03:21.761Z,15.67
2023-01-27T00:05:48.914Z,13.90
2023-01-27T00:08:16.414Z,19.47
2023-01-27T00:10:43.199Z,11.87
2023-01-27T00:13:31.550Z,11.73
2023-01-27T00:15:58.225Z,15.90
2023-01-27T00:18:25.683Z,14.97
2023-01-27T00:21:11.114Z,12.97
2023-01-27T00:23:56.547Z,13.53
2023-01-27T00:26:23.247Z,16.20
2023-01-27T00:28:49.988Z,15.63
2023-01-27T00:31:36.134Z,15.07
2023-01-27T00:34:08.968Z,15.63
2023-01-27T00:36:38.184Z,14.90
2023-01-27T00:39:06.516Z,12.80
2023-01-27T00:41:34.018Z,14.80
2023-01-27T00:44:01.565Z,17.00
2023-01-27T00:46:28.395Z,15.13
2023-01-27T00:48:55.520Z,15.23
2023-01-27T00:51:22.149Z,19.93
2023-01-27T00:53:48.949Z,21.43
2023-01-27T00:56:16.084Z,15.97
2023-01-27T00:58:42.786Z,18.20
2023-01-27T01:01:15.109Z,18.47
2023-01-27T01:03:42.456Z,19.50
2023-01-27T01:06:11.543Z,22.90
2023-01-27T01:08:38.605Z,19.67
2023-01-27T01:11:07.335Z,24.43
2023-01-27T01:13:36.041Z,20.10
2023-01-27T01:16:11.672Z,22.13
2023-01-27T01:18:39.116Z,18.50
2023-01-27T01:21:06.897Z,19.30
2023-01-27T01:23:34.914Z,20.90
2023-01-27T01:26:01.497Z,18.33
2023-01-27T01:28:28.460Z,19.00
2023-01-27T01:30:55.213Z,20.20
2023-01-27T01:33:22.223Z,22.50
2023-01-27T01:35:48.863Z,23.20
2023-01-27T01:38:15.468Z,27.17
2023-01-27T01:40:44.122Z,21.40
2023-01-27T01:43:18.203Z,23.00
2023-01-27T01:45:59.020Z,24.80
2023-01-27T01:48:33.928Z,26.90
2023-01-27T01:51:13.639Z,21.90
2023-01-27T01:53:58.688Z,25.57
2023-01-27T01:56:42.844Z,20.43
2023-01-27T01:59:17.526Z,21.47
2023-01-27T02:01:44.234Z,21.70
2023-01-27T02:04:16.664Z,19.57
2023-01-27T02:07:09.681Z,26.17
2023-01-27T02:09:38.264Z,24.60
2023-01-27T02:12:05.366Z,27.93
2023-01-27T02:14:32.748Z,24.43
2023-01-27T02:16:59.365Z,22.77
2023-01-27T02:19:48.713Z,27.33
2023-01-27T13:31:19.852Z,6.80
2023-01-27T13:33:55.577Z,8.03
2023-01-27T13:36:32.841Z,9.17
2023-01-27T13:39:20.025Z,6.97
2023-01-27T13:41:55.795Z,9.70
2023-01-27T13:44:31.350Z,12.00
2023-01-27T13:47:04.323Z,9.10
2023-01-27T13:49:48.148Z,6.27
2023-01-27T13:52:15.176Z,6.80
2023-01-27T14:58:00.338Z,5.30
2023-01-27T15:00:49.942Z,4.20
2023-01-27T15:03:34.818Z,4.73
2023-01-27T15:06:04.515Z,4.20
2023-01-27T15:09:01.522Z,6.60
2023-01-27T15:11:32.652Z,5.63
2023-01-27T15:14:30.071Z,6.43
2023-01-27T15:17:03.032Z,6.57
2023-01-27T15:19:47.306Z,7.27
2023-01-27T15:22:27.030Z,9.00
2023-01-27T15:25:21.523Z,4.90
2023-01-27T15:27:53.016Z,5.83
2023-01-27T15:30:34.441Z,6.40
2023-01-27T15:33:01.621Z,7.97
2023-01-27T15:35:36.228Z,7.70
2023-01-27T15:38:07.741Z,9.60
2023-01-27T15:40:58.861Z,6.10
2023-01-27T15:43:31.751Z,7.40
2023-01-27T15:46:34.624Z,6.27
2023-01-27T15:49:04.549Z,8.47
2023-01-27T15:51:36.238Z,8.57
2023-01-27T15:54:03.810Z,6.30
2023-01-27T15:56:41.852Z,10.10
2023-01-27T15:59:16.103Z,9.27
2023-01-27T16:01:42.936Z,12.50
2023-01-27T16:04:24.144Z,15.60
2023-01-27T16:07:02.794Z,5.75
2023-01-27T16:09:45.727Z,5.33
2023-01-27T16:12:26.258Z,5.17
2023-01-27T16:15:11.125Z,6.60
2023-01-27T16:18:22.451Z,6.30
2023-01-27T16:21:06.817Z,7.47
2023-01-27T16:23:48.633Z,6.10
2023-01-27T16:26:46.110Z,5.90
2023-01-27T16:29:12.683Z,6.20
2023-01-27T16:31:41.603Z,9.40
2023-01-27T16:34:20.790Z,6.67
2023-01-27T16:36:47.636Z,7.30
2023-01-27T16:39:17.254Z,5.67
2023-01-27T16:41:53.329Z,7.00
2023-01-27T16:44:31.030Z,9.20
2023-01-27T16:47:14.936Z,5.70
2023-01-27T16:49:43.681Z,8.10
2023-01-27T16:52:21.301Z,7.83
2023-01-27T16:54:53.126Z,9.70
2023-01-27T16:57:35.947Z,9.33
2023-01-27T17:00:17.728Z,5.70
2023-01-27T17:02:44.686Z,6.87
2023-01-27T17:05:18.741Z,6.20
2023-01-27T17:08:16.425Z,7.60
2023-01-27T17:10:51.253Z,5.70
2023-01-27T17:13:31.315Z,6.63
2023-01-27T17:16:00.670Z,8.47
2023-01-27T17:18:37.507Z,6.20
2023-01-27T17:21:08.808Z,6.27
2023-01-27T17:23:37.818Z,7.00
2023-01-27T17:26:14.862Z,7.13
2023-01-27T17:28:44.318Z,7.33
2023-01-27T17:31:19.217Z,5.43
2023-01-27T17:33:48.441Z,12.30
2023-01-27T17:36:15.515Z,5.73
2023-01-27T17:38:51.212Z,6.27
2023-01-27T17:41:35.797Z,6.17
2023-01-27T17:44:10.592Z,8.07
2023-01-27T17:46:37.777Z,6.10
2023-01-27T17:49:08.214Z,8.10
2023-01-27T17:51:39.010Z,8.23
2023-01-27T17:54:24.873Z,6.60
2023-01-27T17:57:08.432Z,5.73
2023-01-27T17:59:39.353Z,6.50
2023-01-27T18:02:16.607Z,7.90
2023-01-27T18:04:45.077Z,8.03
2023-01-27T18:07:12.001Z,7.37
2023-01-27T18:09:45.437Z,10.37
2023-01-27T18:12:30.717Z,9.00
2023-01-27T18:14:57.457Z,9.80
2023-01-27T18:17:27.418Z,10.83
2023-01-27T18:19:56.624Z,8.27
2023-01-27T18:22:27.864Z,8.70
2023-01-27T18:25:03.964Z,9.90
2023-01-27T18:27:34.987Z,7.20
2023-01-27T18:30:23.587Z,8.83
2023-01-27T18:33:02.578Z,8.67
2023-01-27T18:35:32.270Z,8.23
2023-01-27T18:38:02.060Z,10.53
2023-01-27T18:40:37.535Z,9.00
2023-01-27T18:43:05.370Z,8.57
2023-01-27T18:45:32.205Z,7.93
2023-01-27T18:47:59.557Z,8.20
2023-01-27T18:50:27.178Z,8.53
2023-01-27T18:52:54.067Z,7.73
2023-01-27T18:55:30.073Z,7.73
2023-01-27T18:57:58.579Z,9.90
2023-01-27T19:00:30.147Z,8.87
2023-01-27T19:03:02.926Z,5.97
2023-01-27T19:05:32.894Z,8.73
2023-01-27T19:08:00.080Z,6.87
2023-01-27T19:10:29.732Z,7.07
2023-01-27T19:13:00.678Z,8.00
2023-01-27T19:15:37.226Z,7.97
2023-01-27T19:18:15.101Z,7.43
2023-01-27T19:20:41.814Z,6.60
2023-01-27T19:23:14.890Z,7.67
2023-01-27T19:25:41.826Z,8.47
2023-01-27T19:28:17.556Z,8.67
2023-01-27T19:30:44.901Z,7.47
2023-01-27T19:33:21.801Z,8.50
2023-01-27T19:36:17.205Z,9.20
2023-01-27T19:38:43.802Z,7.53
2023-01-27T19:41:10.961Z,4.90
2023-01-27T19:43:37.794Z,6.07
2023-01-27T19:46:15.633Z,8.97
2023-01-27T19:48:42.530Z,5.83
2023-01-27T19:51:13.980Z,5.90
